sensor_id;sensor_type;location;lat;lon;timestamp;temperature;humidity
69162;DHT22;56269;51.738;21.652;2022-10-16T00:00:39;12.10;92.86
69162;DHT22;56269;51.738;21.652;2022-10-16T00:03:25;12.20;92.75
69162;DHT22;56269;51.738;21.652;2022-10-16T00:05:51;12.23;92.33
69162;DHT22;56269;51.738;21.652;2022-10-16T00:08:17;12.28;92.11
69162;DHT22;56269;51.738;21.652;2022-10-16T00:10:43;12.20;92.58
69162;DHT22;56269;51.738;21.652;2022-10-16T00:13:09;12.23;92.44
69162;DHT22;56269;51.738;21.652;2022-10-16T00:15:36;12.25;92.23
69162;DHT22;56269;51.738;21.652;2022-10-16T00:18:04;12.21;92.39
69162;DHT22;56269;51.738;21.652;2022-10-16T00:20:33;12.24;92.38
69162;DHT22;56269;51.738;21.652;2022-10-16T00:23:00;12.14;92.56
69162;DHT22;56269;51.738;21.652;2022-10-16T00:25:26;12.12;92.87
69162;DHT22;56269;51.738;21.652;2022-10-16T00:27:52;12.04;92.98
69162;DHT22;56269;51.738;21.652;2022-10-16T00:30:18;12.10;92.79
69162;DHT22;56269;51.738;21.652;2022-10-16T00:32:44;12.08;92.74
69162;DHT22;56269;51.738;21.652;2022-10-16T00:35:10;12.08;92.90
69162;DHT22;56269;51.738;21.652;2022-10-16T00:37:36;12.00;93.18
69162;DHT22;56269;51.738;21.652;2022-10-16T00:40:02;12.00;93.19
69162;DHT22;56269;51.738;21.652;2022-10-16T00:42:28;12.07;92.86
69162;DHT22;56269;51.738;21.652;2022-10-16T00:44:57;12.05;92.97
69162;DHT22;56269;51.738;21.652;2022-10-16T00:47:35;12.04;92.80
69162;DHT22;56269;51.738;21.652;2022-10-16T00:52:34;12.01;92.96
69162;DHT22;56269;51.738;21.652;2022-10-16T00:55:02;11.97;93.06
69162;DHT22;56269;51.738;21.652;2022-10-16T00:57:29;12.01;93.03
69162;DHT22;56269;51.738;21.652;2022-10-16T00:59:56;12.03;92.89
69162;DHT22;56269;51.738;21.652;2022-10-16T01:02:22;12.16;92.48
69162;DHT22;56269;51.738;21.652;2022-10-16T01:04:52;12.05;92.86
69162;DHT22;56269;51.738;21.652;2022-10-16T01:10:36;12.18;92.24
69162;DHT22;56269;51.738;21.652;2022-10-16T01:13:10;12.30;92.11
69162;DHT22;56269;51.738;21.652;2022-10-16T01:15:41;12.20;92.52
69162;DHT22;56269;51.738;21.652;2022-10-16T01:18:18;12.27;92.23
69162;DHT22;56269;51.738;21.652;2022-10-16T01:28:54;12.33;91.72
69162;DHT22;56269;51.738;21.652;2022-10-16T01:31:24;12.33;91.69
69162;DHT22;56269;51.738;21.652;2022-10-16T01:34:47;12.34;91.82
69162;DHT22;56269;51.738;21.652;2022-10-16T01:37:16;12.41;91.35
69162;DHT22;56269;51.738;21.652;2022-10-16T01:39:47;12.37;91.56
69162;DHT22;56269;51.738;21.652;2022-10-16T01:42:22;12.33;91.67
69162;DHT22;56269;51.738;21.652;2022-10-16T01:44:51;12.38;91.20
69162;DHT22;56269;51.738;21.652;2022-10-16T01:47:22;12.34;91.58
69162;DHT22;56269;51.738;21.652;2022-10-16T01:49:50;12.31;91.59
69162;DHT22;56269;51.738;21.652;2022-10-16T01:52:20;12.35;91.49
69162;DHT22;56269;51.738;21.652;2022-10-16T01:54:50;12.33;91.56
69162;DHT22;56269;51.738;21.652;2022-10-16T01:57:18;12.31;91.75
69162;DHT22;56269;51.738;21.652;2022-10-16T01:59:47;12.30;91.83
69162;DHT22;56269;51.738;21.652;2022-10-16T02:02:15;12.30;91.67
69162;DHT22;56269;51.738;21.652;2022-10-16T02:04:46;12.31;91.71
69162;DHT22;56269;51.738;21.652;2022-10-16T02:07:13;12.38;91.59
69162;DHT22;56269;51.738;21.652;2022-10-16T02:09:40;12.35;91.39
69162;DHT22;56269;51.738;21.652;2022-10-16T02:12:12;12.38;91.49
69162;DHT22;56269;51.738;21.652;2022-10-16T02:14:40;12.40;91.45
69162;DHT22;56269;51.738;21.652;2022-10-16T02:17:15;12.35;91.24
69162;DHT22;56269;51.738;21.652;2022-10-16T02:19:42;12.38;91.40
69162;DHT22;56269;51.738;21.652;2022-10-16T02:22:14;12.41;91.51
69162;DHT22;56269;51.738;21.652;2022-10-16T02:27:36;12.38;91.56
69162;DHT22;56269;51.738;21.652;2022-10-16T02:30:19;12.35;91.39
69162;DHT22;56269;51.738;21.652;2022-10-16T02:32:48;12.35;91.64
69162;DHT22;56269;51.738;21.652;2022-10-16T02:35:19;12.33;91.71
69162;DHT22;56269;51.738;21.652;2022-10-16T02:37:47;12.30;91.77
69162;DHT22;56269;51.738;21.652;2022-10-16T02:40:15;12.40;91.30
69162;DHT22;56269;51.738;21.652;2022-10-16T02:42:41;12.34;91.50
69162;DHT22;56269;51.738;21.652;2022-10-16T02:45:09;12.40;91.33
69162;DHT22;56269;51.738;21.652;2022-10-16T02:47:36;12.33;91.89
69162;DHT22;56269;51.738;21.652;2022-10-16T02:50:03;12.38;91.40
69162;DHT22;56269;51.738;21.652;2022-10-16T02:52:29;12.33;91.56
69162;DHT22;56269;51.738;21.652;2022-10-16T02:54:55;12.33;91.72
69162;DHT22;56269;51.738;21.652;2022-10-16T02:57:21;12.28;91.99
69162;DHT22;56269;51.738;21.652;2022-10-16T02:59:48;12.27;92.06
69162;DHT22;56269;51.738;21.652;2022-10-16T03:02:14;12.27;92.14
69162;DHT22;56269;51.738;21.652;2022-10-16T03:04:40;12.23;92.47
69162;DHT22;56269;51.738;21.652;2022-10-16T03:07:06;12.21;92.34
69162;DHT22;56269;51.738;21.652;2022-10-16T03:09:33;12.28;92.19
69162;DHT22;56269;51.738;21.652;2022-10-16T03:11:59;12.27;92.23
69162;DHT22;56269;51.738;21.652;2022-10-16T03:14:25;12.25;92.85
69162;DHT22;56269;51.738;21.652;2022-10-16T03:16:51;12.24;93.67
69162;DHT22;56269;51.738;21.652;2022-10-16T03:19:18;12.21;94.42
69162;DHT22;56269;51.738;21.652;2022-10-16T03:21:44;12.17;95.23
69162;DHT22;56269;51.738;21.652;2022-10-16T03:24:10;12.07;95.89
69162;DHT22;56269;51.738;21.652;2022-10-16T03:26:36;12.05;96.02
69162;DHT22;56269;51.738;21.652;2022-10-16T03:29:03;12.00;96.41
69162;DHT22;56269;51.738;21.652;2022-10-16T03:31:29;11.91;96.61
69162;DHT22;56269;51.738;21.652;2022-10-16T03:33:56;11.90;96.98
69162;DHT22;56269;51.738;21.652;2022-10-16T03:36:22;11.83;96.97
69162;DHT22;56269;51.738;21.652;2022-10-16T03:38:48;11.90;96.81
69162;DHT22;56269;51.738;21.652;2022-10-16T03:41:14;11.86;96.83
69162;DHT22;56269;51.738;21.652;2022-10-16T03:43:41;11.86;96.97
69162;DHT22;56269;51.738;21.652;2022-10-16T03:46:06;11.91;97.07
69162;DHT22;56269;51.738;21.652;2022-10-16T03:48:33;11.83;97.23
69162;DHT22;56269;51.738;21.652;2022-10-16T03:50:59;11.83;97.49
69162;DHT22;56269;51.738;21.652;2022-10-16T03:53:25;11.79;97.56
69162;DHT22;56269;51.738;21.652;2022-10-16T03:55:51;11.77;97.35
69162;DHT22;56269;51.738;21.652;2022-10-16T03:58:17;11.84;97.12
69162;DHT22;56269;51.738;21.652;2022-10-16T04:00:44;11.79;97.23
69162;DHT22;56269;51.738;21.652;2022-10-16T04:03:11;11.76;97.50
69162;DHT22;56269;51.738;21.652;2022-10-16T04:05:37;11.70;97.80
69162;DHT22;56269;51.738;21.652;2022-10-16T04:08:04;11.74;97.70
69162;DHT22;56269;51.738;21.652;2022-10-16T04:10:30;11.72;97.58
69162;DHT22;56269;51.738;21.652;2022-10-16T04:12:56;11.69;97.63
69162;DHT22;56269;51.738;21.652;2022-10-16T04:15:23;11.74;97.32
69162;DHT22;56269;51.738;21.652;2022-10-16T04:17:49;11.73;97.24
69162;DHT22;56269;51.738;21.652;2022-10-16T04:20:15;11.70;97.33
69162;DHT22;56269;51.738;21.652;2022-10-16T04:22:41;11.69;97.24
69162;DHT22;56269;51.738;21.652;2022-10-16T04:25:07;11.70;97.28
69162;DHT22;56269;51.738;21.652;2022-10-16T04:27:34;11.63;97.24
69162;DHT22;56269;51.738;21.652;2022-10-16T04:30:00;11.67;97.18
69162;DHT22;56269;51.738;21.652;2022-10-16T04:32:26;11.63;97.46
69162;DHT22;56269;51.738;21.652;2022-10-16T04:34:52;11.59;97.43
69162;DHT22;56269;51.738;21.652;2022-10-16T04:37:19;11.61;97.38
69162;DHT22;56269;51.738;21.652;2022-10-16T04:39:48;11.61;97.19
69162;DHT22;56269;51.738;21.652;2022-10-16T04:42:14;11.59;97.13
69162;DHT22;56269;51.738;21.652;2022-10-16T04:44:40;11.58;97.25
69162;DHT22;56269;51.738;21.652;2022-10-16T04:47:06;11.52;97.41
69162;DHT22;56269;51.738;21.652;2022-10-16T04:49:32;11.51;97.48
69162;DHT22;56269;51.738;21.652;2022-10-16T04:51:58;11.52;97.35
69162;DHT22;56269;51.738;21.652;2022-10-16T04:54:24;11.46;97.44
69162;DHT22;56269;51.738;21.652;2022-10-16T04:56:50;11.45;97.45
69162;DHT22;56269;51.738;21.652;2022-10-16T04:59:18;11.47;97.05
69162;DHT22;56269;51.738;21.652;2022-10-16T05:01:45;11.47;96.94
69162;DHT22;56269;51.738;21.652;2022-10-16T05:04:11;11.42;97.02
69162;DHT22;56269;51.738;21.652;2022-10-16T05:06:38;11.39;96.86
69162;DHT22;56269;51.738;21.652;2022-10-16T05:09:05;11.38;97.12
69162;DHT22;56269;51.738;21.652;2022-10-16T05:11:31;11.32;97.18
69162;DHT22;56269;51.738;21.652;2022-10-16T05:13:57;11.26;97.27
69162;DHT22;56269;51.738;21.652;2022-10-16T05:16:24;11.22;97.36
69162;DHT22;56269;51.738;21.652;2022-10-16T05:18:51;11.19;97.57
69162;DHT22;56269;51.738;21.652;2022-10-16T05:21:17;11.22;97.54
69162;DHT22;56269;51.738;21.652;2022-10-16T05:23:43;11.25;97.24
69162;DHT22;56269;51.738;21.652;2022-10-16T05:26:09;11.25;97.60
69162;DHT22;56269;51.738;21.652;2022-10-16T05:28:35;11.33;97.16
69162;DHT22;56269;51.738;21.652;2022-10-16T05:31:06;11.39;96.57
69162;DHT22;56269;51.738;21.652;2022-10-16T05:33:32;11.49;96.22
69162;DHT22;56269;51.738;21.652;2022-10-16T05:36:04;11.56;95.95
69162;DHT22;56269;51.738;21.652;2022-10-16T05:38:30;11.65;95.96
69162;DHT22;56269;51.738;21.652;2022-10-16T05:40:56;11.69;95.75
69162;DHT22;56269;51.738;21.652;2022-10-16T05:43:23;11.72;94.95
69162;DHT22;56269;51.738;21.652;2022-10-16T05:46:02;11.65;95.21
69162;DHT22;56269;51.738;21.652;2022-10-16T05:48:28;11.59;95.48
69162;DHT22;56269;51.738;21.652;2022-10-16T05:53:24;11.53;95.30
69162;DHT22;56269;51.738;21.652;2022-10-16T05:55:52;11.59;95.24
69162;DHT22;56269;51.738;21.652;2022-10-16T05:58:18;11.67;94.96
69162;DHT22;56269;51.738;21.652;2022-10-16T06:00:44;11.83;94.11
69162;DHT22;56269;51.738;21.652;2022-10-16T06:03:10;11.97;93.82
69162;DHT22;56269;51.738;21.652;2022-10-16T06:05:36;12.12;92.79
69162;DHT22;56269;51.738;21.652;2022-10-16T06:08:02;12.25;92.56
69162;DHT22;56269;51.738;21.652;2022-10-16T06:10:28;12.40;92.29
69162;DHT22;56269;51.738;21.652;2022-10-16T06:12:54;12.59;91.26
69162;DHT22;56269;51.738;21.652;2022-10-16T06:15:20;12.89;91.22
69162;DHT22;56269;51.738;21.652;2022-10-16T06:17:46;12.88;90.33
69162;DHT22;56269;51.738;21.652;2022-10-16T06:20:13;13.06;90.71
69162;DHT22;56269;51.738;21.652;2022-10-16T06:22:38;13.13;89.70
69162;DHT22;56269;51.738;21.652;2022-10-16T06:25:05;13.13;89.91
69162;DHT22;56269;51.738;21.652;2022-10-16T06:27:31;13.16;89.76
69162;DHT22;56269;51.738;21.652;2022-10-16T06:29:57;12.89;89.79
69162;DHT22;56269;51.738;21.652;2022-10-16T06:32:23;12.84;90.15
69162;DHT22;56269;51.738;21.652;2022-10-16T06:34:49;12.79;90.47
69162;DHT22;56269;51.738;21.652;2022-10-16T06:37:15;12.81;90.06
69162;DHT22;56269;51.738;21.652;2022-10-16T06:39:41;12.92;90.21
69162;DHT22;56269;51.738;21.652;2022-10-16T06:42:08;13.16;89.25
69162;DHT22;56269;51.738;21.652;2022-10-16T06:44:34;13.33;87.96
69162;DHT22;56269;51.738;21.652;2022-10-16T06:47:00;13.48;87.20
69162;DHT22;56269;51.738;21.652;2022-10-16T06:49:26;13.81;86.41
69162;DHT22;56269;51.738;21.652;2022-10-16T06:51:54;13.81;85.94
69162;DHT22;56269;51.738;21.652;2022-10-16T06:54:20;13.81;86.13
69162;DHT22;56269;51.738;21.652;2022-10-16T06:56:46;13.47;86.96
69162;DHT22;56269;51.738;21.652;2022-10-16T06:59:12;13.91;86.46
69162;DHT22;56269;51.738;21.652;2022-10-16T07:01:38;14.29;84.86
69162;DHT22;56269;51.738;21.652;2022-10-16T07:04:04;14.52;83.89
69162;DHT22;56269;51.738;21.652;2022-10-16T07:06:32;14.77;83.39
69162;DHT22;56269;51.738;21.652;2022-10-16T07:09:01;15.14;82.27
69162;DHT22;56269;51.738;21.652;2022-10-16T07:11:28;15.20;82.39
69162;DHT22;56269;51.738;21.652;2022-10-16T07:13:54;15.23;82.03
69162;DHT22;56269;51.738;21.652;2022-10-16T07:16:25;15.52;81.21
69162;DHT22;56269;51.738;21.652;2022-10-16T07:18:54;15.20;80.29
69162;DHT22;56269;51.738;21.652;2022-10-16T07:21:25;15.47;80.51
69162;DHT22;56269;51.738;21.652;2022-10-16T07:23:52;15.69;80.06
69162;DHT22;56269;51.738;21.652;2022-10-16T07:26:18;15.99;79.58
69162;DHT22;56269;51.738;21.652;2022-10-16T07:28:45;16.27;77.98
69162;DHT22;56269;51.738;21.652;2022-10-16T07:31:13;16.44;78.75
69162;DHT22;56269;51.738;21.652;2022-10-16T07:33:40;16.63;78.31
69162;DHT22;56269;51.738;21.652;2022-10-16T07:36:08;16.65;76.92
69162;DHT22;56269;51.738;21.652;2022-10-16T07:38:34;16.02;78.51
69162;DHT22;56269;51.738;21.652;2022-10-16T07:41:02;16.44;77.88
69162;DHT22;56269;51.738;21.652;2022-10-16T07:43:30;16.52;77.47
69162;DHT22;56269;51.738;21.652;2022-10-16T07:45:57;16.43;77.27
69162;DHT22;56269;51.738;21.652;2022-10-16T07:48:33;16.63;77.83
69162;DHT22;56269;51.738;21.652;2022-10-16T07:51:03;16.78;76.03
69162;DHT22;56269;51.738;21.652;2022-10-16T07:53:30;16.92;75.95
69162;DHT22;56269;51.738;21.652;2022-10-16T07:56:01;17.28;74.78
69162;DHT22;56269;51.738;21.652;2022-10-16T07:58:28;16.91;75.93
69162;DHT22;56269;51.738;21.652;2022-10-16T08:00:56;17.40;74.08
69162;DHT22;56269;51.738;21.652;2022-10-16T08:03:23;17.31;74.59
69162;DHT22;56269;51.738;21.652;2022-10-16T08:05:49;17.10;74.53
69162;DHT22;56269;51.738;21.652;2022-10-16T08:08:16;17.04;75.11
69162;DHT22;56269;51.738;21.652;2022-10-16T08:10:43;17.02;75.83
69162;DHT22;56269;51.738;21.652;2022-10-16T08:13:10;17.61;74.55
69162;DHT22;56269;51.738;21.652;2022-10-16T08:15:36;17.24;74.22
69162;DHT22;56269;51.738;21.652;2022-10-16T08:18:04;17.15;74.23
69162;DHT22;56269;51.738;21.652;2022-10-16T08:20:32;17.46;73.57
69162;DHT22;56269;51.738;21.652;2022-10-16T08:22:59;17.04;75.70
69162;DHT22;56269;51.738;21.652;2022-10-16T08:25:25;16.96;75.60
69162;DHT22;56269;51.738;21.652;2022-10-16T08:27:53;17.53;74.28
69162;DHT22;56269;51.738;21.652;2022-10-16T08:30:22;17.80;73.28
69162;DHT22;56269;51.738;21.652;2022-10-16T08:32:49;18.16;72.24
69162;DHT22;56269;51.738;21.652;2022-10-16T08:35:15;18.62;71.17
69162;DHT22;56269;51.738;21.652;2022-10-16T08:37:42;18.78;70.79
69162;DHT22;56269;51.738;21.652;2022-10-16T08:40:20;18.16;71.55
69162;DHT22;56269;51.738;21.652;2022-10-16T08:50:38;18.34;71.10
69162;DHT22;56269;51.738;21.652;2022-10-16T08:53:06;18.79;70.83
69162;DHT22;56269;51.738;21.652;2022-10-16T08:55:43;19.05;71.15
69162;DHT22;56269;51.738;21.652;2022-10-16T08:58:21;18.82;69.73
69162;DHT22;56269;51.738;21.652;2022-10-16T09:01:11;18.99;69.18
69162;DHT22;56269;51.738;21.652;2022-10-16T09:03:48;19.45;68.90
69162;DHT22;56269;51.738;21.652;2022-10-16T09:11:36;19.54;69.27
69162;DHT22;56269;51.738;21.652;2022-10-16T09:16:48;19.49;68.26
69162;DHT22;56269;51.738;21.652;2022-10-16T09:19:33;19.66;68.21
69162;DHT22;56269;51.738;21.652;2022-10-16T09:22:11;19.84;66.99
69162;DHT22;56269;51.738;21.652;2022-10-16T09:24:38;19.41;67.80
69162;DHT22;56269;51.738;21.652;2022-10-16T09:27:04;19.49;68.54
69162;DHT22;56269;51.738;21.652;2022-10-16T09:29:30;19.12;69.77
69162;DHT22;56269;51.738;21.652;2022-10-16T09:32:10;19.00;70.77
69162;DHT22;56269;51.738;21.652;2022-10-16T09:34:45;19.03;70.63
69162;DHT22;56269;51.738;21.652;2022-10-16T09:37:16;19.36;70.35
69162;DHT22;56269;51.738;21.652;2022-10-16T09:39:48;19.06;69.24
69162;DHT22;56269;51.738;21.652;2022-10-16T09:42:23;19.09;70.32
69162;DHT22;56269;51.738;21.652;2022-10-16T09:44:51;19.41;69.34
69162;DHT22;56269;51.738;21.652;2022-10-16T09:47:26;19.39;69.38
69162;DHT22;56269;51.738;21.652;2022-10-16T09:49:55;19.51;69.59
69162;DHT22;56269;51.738;21.652;2022-10-16T09:52:23;19.74;69.22
69162;DHT22;56269;51.738;21.652;2022-10-16T09:57:20;19.85;67.84
69162;DHT22;56269;51.738;21.652;2022-10-16T09:59:52;19.78;66.81
69162;DHT22;56269;51.738;21.652;2022-10-16T10:02:33;20.26;67.11
69162;DHT22;56269;51.738;21.652;2022-10-16T10:05:01;19.95;66.40
69162;DHT22;56269;51.738;21.652;2022-10-16T10:07:31;19.94;66.49
69162;DHT22;56269;51.738;21.652;2022-10-16T10:10:00;20.11;67.16
69162;DHT22;56269;51.738;21.652;2022-10-16T10:12:28;19.73;67.98
69162;DHT22;56269;51.738;21.652;2022-10-16T10:17:56;19.20;68.54
69162;DHT22;56269;51.738;21.652;2022-10-16T10:20:29;18.91;70.11
69162;DHT22;56269;51.738;21.652;2022-10-16T10:22:57;18.89;70.20
69162;DHT22;56269;51.738;21.652;2022-10-16T10:30:44;18.85;70.46
69162;DHT22;56269;51.738;21.652;2022-10-16T10:46:48;19.20;69.52
69162;DHT22;56269;51.738;21.652;2022-10-16T10:49:34;19.33;69.59
69162;DHT22;56269;51.738;21.652;2022-10-16T11:05:45;19.97;68.08
69162;DHT22;56269;51.738;21.652;2022-10-16T11:08:40;20.28;67.54
69162;DHT22;56269;51.738;21.652;2022-10-16T11:11:20;19.97;67.52
69162;DHT22;56269;51.738;21.652;2022-10-16T11:22:18;19.66;69.46
69162;DHT22;56269;51.738;21.652;2022-10-16T11:24:55;19.74;69.09
69162;DHT22;56269;51.738;21.652;2022-10-16T11:30:28;19.70;68.25
69162;DHT22;56269;51.738;21.652;2022-10-16T11:38:50;20.04;68.45
69162;DHT22;56269;51.738;21.652;2022-10-16T11:41:42;19.98;67.86
69162;DHT22;56269;51.738;21.652;2022-10-16T11:49:33;20.14;67.37
69162;DHT22;56269;51.738;21.652;2022-10-16T11:52:07;20.63;66.96
69162;DHT22;56269;51.738;21.652;2022-10-16T11:54:57;20.69;67.13
69162;DHT22;56269;51.738;21.652;2022-10-16T11:57:32;20.65;67.08
69162;DHT22;56269;51.738;21.652;2022-10-16T12:00:09;20.55;67.34
69162;DHT22;56269;51.738;21.652;2022-10-16T12:03:04;20.62;67.89
69162;DHT22;56269;51.738;21.652;2022-10-16T12:08:35;20.68;66.76
69162;DHT22;56269;51.738;21.652;2022-10-16T12:14:17;21.01;65.92
69162;DHT22;56269;51.738;21.652;2022-10-16T12:19:24;20.89;66.56
69162;DHT22;56269;51.738;21.652;2022-10-16T12:21:51;20.90;66.58
69162;DHT22;56269;51.738;21.652;2022-10-16T12:24:35;20.65;66.42
69162;DHT22;56269;51.738;21.652;2022-10-16T12:27:04;20.66;67.12
69162;DHT22;56269;51.738;21.652;2022-10-16T12:29:38;20.48;67.47
69162;DHT22;56269;51.738;21.652;2022-10-16T12:32:38;20.35;67.58
69162;DHT22;56269;51.738;21.652;2022-10-16T12:35:28;20.21;69.16
69162;DHT22;56269;51.738;21.652;2022-10-16T12:38:05;20.11;70.16
69162;DHT22;56269;51.738;21.652;2022-10-16T12:40:35;20.04;69.74
69162;DHT22;56269;51.738;21.652;2022-10-16T12:43:26;19.94;69.85
69162;DHT22;56269;51.738;21.652;2022-10-16T12:46:23;19.85;69.76
69162;DHT22;56269;51.738;21.652;2022-10-16T12:48:47;19.87;70.16
69162;DHT22;56269;51.738;21.652;2022-10-16T12:54:12;19.95;69.81
69162;DHT22;56269;51.738;21.652;2022-10-16T12:59:43;19.80;70.14
69162;DHT22;56269;51.738;21.652;2022-10-16T13:05:10;19.49;72.14
69162;DHT22;56269;51.738;21.652;2022-10-16T13:10:37;19.26;71.62
69162;DHT22;56269;51.738;21.652;2022-10-16T13:24:13;19.39;72.38
69162;DHT22;56269;51.738;21.652;2022-10-16T13:26:46;19.75;72.71
69162;DHT22;56269;51.738;21.652;2022-10-16T13:29:15;20.12;70.45
69162;DHT22;56269;51.738;21.652;2022-10-16T13:31:42;19.92;70.19
69162;DHT22;56269;51.738;21.652;2022-10-16T13:34:14;19.88;71.02
69162;DHT22;56269;51.738;21.652;2022-10-16T13:39:28;19.73;71.13
69162;DHT22;56269;51.738;21.652;2022-10-16T13:42:22;19.43;72.42
69162;DHT22;56269;51.738;21.652;2022-10-16T13:44:51;19.37;72.91
69162;DHT22;56269;51.738;21.652;2022-10-16T13:47:23;19.59;72.19
69162;DHT22;56269;51.738;21.652;2022-10-16T13:50:09;19.74;71.76
69162;DHT22;56269;51.738;21.652;2022-10-16T13:52:37;19.81;71.20
69162;DHT22;56269;51.738;21.652;2022-10-16T13:55:15;19.63;71.46
69162;DHT22;56269;51.738;21.652;2022-10-16T13:57:42;19.39;72.78
69162;DHT22;56269;51.738;21.652;2022-10-16T14:00:38;19.10;73.66
69162;DHT22;56269;51.738;21.652;2022-10-16T14:03:13;18.89;73.65
69162;DHT22;56269;51.738;21.652;2022-10-16T14:06:01;18.73;74.40
69162;DHT22;56269;51.738;21.652;2022-10-16T14:08:29;18.62;75.20
69162;DHT22;56269;51.738;21.652;2022-10-16T14:10:57;18.54;75.48
69162;DHT22;56269;51.738;21.652;2022-10-16T14:15:57;18.44;75.79
69162;DHT22;56269;51.738;21.652;2022-10-16T14:18:26;18.35;76.49
69162;DHT22;56269;51.738;21.652;2022-10-16T14:20:53;18.31;77.12
69162;DHT22;56269;51.738;21.652;2022-10-16T14:23:29;18.30;76.32
69162;DHT22;56269;51.738;21.652;2022-10-16T14:26:06;18.24;76.59
69162;DHT22;56269;51.738;21.652;2022-10-16T14:28:41;18.21;77.02
69162;DHT22;56269;51.738;21.652;2022-10-16T14:31:31;18.18;77.35
69162;DHT22;56269;51.738;21.652;2022-10-16T14:33:58;18.10;78.10
69162;DHT22;56269;51.738;21.652;2022-10-16T14:36:27;18.03;78.04
69162;DHT22;56269;51.738;21.652;2022-10-16T14:39:05;17.93;78.60
69162;DHT22;56269;51.738;21.652;2022-10-16T14:41:40;17.91;78.25
69162;DHT22;56269;51.738;21.652;2022-10-16T14:44:10;17.87;79.09
69162;DHT22;56269;51.738;21.652;2022-10-16T14:46:39;17.85;79.16
69162;DHT22;56269;51.738;21.652;2022-10-16T14:51:39;17.75;79.55
69162;DHT22;56269;51.738;21.652;2022-10-16T14:54:11;17.69;80.10
69162;DHT22;56269;51.738;21.652;2022-10-16T14:56:53;17.69;79.88
69162;DHT22;56269;51.738;21.652;2022-10-16T14:59:30;17.67;80.16
69162;DHT22;56269;51.738;21.652;2022-10-16T15:01:57;17.65;79.89
69162;DHT22;56269;51.738;21.652;2022-10-16T15:04:24;17.55;80.52
69162;DHT22;56269;51.738;21.652;2022-10-16T15:06:50;17.52;80.81
69162;DHT22;56269;51.738;21.652;2022-10-16T15:09:16;17.50;80.72
69162;DHT22;56269;51.738;21.652;2022-10-16T15:11:42;17.49;81.21
69162;DHT22;56269;51.738;21.652;2022-10-16T15:14:12;17.45;80.79
69162;DHT22;56269;51.738;21.652;2022-10-16T15:16:39;17.45;80.61
69162;DHT22;56269;51.738;21.652;2022-10-16T15:19:05;17.42;80.95
69162;DHT22;56269;51.738;21.652;2022-10-16T15:21:32;17.39;80.64
69162;DHT22;56269;51.738;21.652;2022-10-16T15:23:59;17.38;80.84
69162;DHT22;56269;51.738;21.652;2022-10-16T15:26:27;17.29;81.26
69162;DHT22;56269;51.738;21.652;2022-10-16T15:28:53;17.24;81.48
69162;DHT22;56269;51.738;21.652;2022-10-16T15:31:20;17.25;81.10
69162;DHT22;56269;51.738;21.652;2022-10-16T15:33:52;17.19;81.34
69162;DHT22;56269;51.738;21.652;2022-10-16T15:36:26;17.12;81.77
69162;DHT22;56269;51.738;21.652;2022-10-16T15:38:52;17.00;81.96
69162;DHT22;56269;51.738;21.652;2022-10-16T15:41:20;16.85;82.66
69162;DHT22;56269;51.738;21.652;2022-10-16T15:43:48;16.75;82.80
69162;DHT22;56269;51.738;21.652;2022-10-16T15:46:17;16.64;82.97
69162;DHT22;56269;51.738;21.652;2022-10-16T15:48:43;16.61;83.03
69162;DHT22;56269;51.738;21.652;2022-10-16T15:51:09;16.46;83.67
69162;DHT22;56269;51.738;21.652;2022-10-16T15:53:36;16.37;84.06
69162;DHT22;56269;51.738;21.652;2022-10-16T15:56:03;16.17;84.55
69162;DHT22;56269;51.738;21.652;2022-10-16T15:58:30;16.12;85.04
69162;DHT22;56269;51.738;21.652;2022-10-16T16:00:57;16.10;84.99
69162;DHT22;56269;51.738;21.652;2022-10-16T16:03:26;16.19;84.62
69162;DHT22;56269;51.738;21.652;2022-10-16T16:05:53;16.14;85.04
69162;DHT22;56269;51.738;21.652;2022-10-16T16:08:19;16.14;84.83
69162;DHT22;56269;51.738;21.652;2022-10-16T16:10:45;16.17;84.74
69162;DHT22;56269;51.738;21.652;2022-10-16T16:13:22;16.03;85.34
69162;DHT22;56269;51.738;21.652;2022-10-16T16:15:48;16.01;85.48
69162;DHT22;56269;51.738;21.652;2022-10-16T16:18:14;15.99;85.67
69162;DHT22;56269;51.738;21.652;2022-10-16T16:20:41;16.02;85.56
69162;DHT22;56269;51.738;21.652;2022-10-16T16:23:06;16.05;85.47
69162;DHT22;56269;51.738;21.652;2022-10-16T16:25:33;16.05;85.30
69162;DHT22;56269;51.738;21.652;2022-10-16T16:27:59;16.10;84.95
69162;DHT22;56269;51.738;21.652;2022-10-16T16:30:25;16.05;85.13
69162;DHT22;56269;51.738;21.652;2022-10-16T16:32:51;16.08;85.03
69162;DHT22;56269;51.738;21.652;2022-10-16T16:35:17;16.02;85.40
69162;DHT22;56269;51.738;21.652;2022-10-16T16:37:43;16.06;84.80
69162;DHT22;56269;51.738;21.652;2022-10-16T16:40:10;16.02;85.06
69162;DHT22;56269;51.738;21.652;2022-10-16T16:42:36;16.02;85.12
69162;DHT22;56269;51.738;21.652;2022-10-16T16:45:03;15.93;85.27
69162;DHT22;56269;51.738;21.652;2022-10-16T16:47:29;15.96;85.24
69162;DHT22;56269;51.738;21.652;2022-10-16T16:49:55;15.91;85.35
69162;DHT22;56269;51.738;21.652;2022-10-16T16:52:21;15.89;85.68
69162;DHT22;56269;51.738;21.652;2022-10-16T16:54:48;15.93;85.32
69162;DHT22;56269;51.738;21.652;2022-10-16T16:57:18;15.95;85.23
69162;DHT22;56269;51.738;21.652;2022-10-16T16:59:45;15.98;84.93
69162;DHT22;56269;51.738;21.652;2022-10-16T17:02:11;15.96;85.13
69162;DHT22;56269;51.738;21.652;2022-10-16T17:04:38;16.03;84.64
69162;DHT22;56269;51.738;21.652;2022-10-16T17:07:04;15.92;85.00
69162;DHT22;56269;51.738;21.652;2022-10-16T17:09:32;16.13;84.04
69162;DHT22;56269;51.738;21.652;2022-10-16T17:11:59;16.08;84.03
69162;DHT22;56269;51.738;21.652;2022-10-16T17:14:25;16.06;84.12
69162;DHT22;56269;51.738;21.652;2022-10-16T17:16:51;15.99;84.60
69162;DHT22;56269;51.738;21.652;2022-10-16T17:19:19;16.19;83.35
69162;DHT22;56269;51.738;21.652;2022-10-16T17:21:48;15.93;84.52
69162;DHT22;56269;51.738;21.652;2022-10-16T17:24:16;15.95;84.20
69162;DHT22;56269;51.738;21.652;2022-10-16T17:26:43;15.91;84.56
69162;DHT22;56269;51.738;21.652;2022-10-16T17:29:14;15.89;84.63
69162;DHT22;56269;51.738;21.652;2022-10-16T17:31:41;15.95;84.18
69162;DHT22;56269;51.738;21.652;2022-10-16T17:34:09;15.91;84.35
69162;DHT22;56269;51.738;21.652;2022-10-16T17:36:38;15.89;84.43
69162;DHT22;56269;51.738;21.652;2022-10-16T17:39:11;15.88;84.55
69162;DHT22;56269;51.738;21.652;2022-10-16T17:41:39;15.82;84.51
69162;DHT22;56269;51.738;21.652;2022-10-16T17:44:06;15.78;85.01